createdAt,value
2023-03-07T00:01:26.312Z,7.00
2023-03-07T00:03:53.341Z,7.00
2023-03-07T00:06:20.260Z,7.00
2023-03-07T00:08:52.574Z,7.00
2023-03-07T00:11:19.676Z,7.00
2023-03-07T00:13:46.636Z,7.00
2023-03-07T00:16:15.303Z,6.90
2023-03-07T00:18:42.134Z,6.90
2023-03-07T00:21:10.639Z,6.90
2023-03-07T00:23:38.618Z,6.90
2023-03-07T00:26:11.391Z,6.90
2023-03-07T00:28:39.683Z,7.00
2023-03-07T00:31:07.834Z,7.00
2023-03-07T00:33:34.826Z,7.00
2023-03-07T00:36:03.529Z,7.00
2023-03-07T00:38:30.827Z,7.00
2023-03-07T00:41:08.253Z,7.10
2023-03-07T00:43:35.299Z,7.10
2023-03-07T00:46:03.957Z,7.10
2023-03-07T00:48:30.898Z,7.10
2023-03-07T00:50:57.730Z,7.10
2023-03-07T00:53:25.666Z,7.10
2023-03-07T00:56:03.954Z,7.10
2023-03-07T00:58:32.602Z,7.10
2023-03-07T01:00:59.521Z,7.10
2023-03-07T01:03:27.450Z,7.10
2023-03-07T01:05:54.897Z,7.20
2023-03-07T01:08:22.847Z,7.20
2023-03-07T01:10:49.982Z,7.20
2023-03-07T01:13:18.216Z,7.20
2023-03-07T01:15:45.305Z,7.20
2023-03-07T01:18:12.406Z,7.20
2023-03-07T01:20:40.498Z,7.20
2023-03-07T01:23:07.348Z,7.20
2023-03-07T01:25:41.425Z,7.20
2023-03-07T01:28:12.394Z,7.10
2023-03-07T01:30:39.240Z,7.10
2023-03-07T01:33:06.167Z,7.10
2023-03-07T01:35:39.632Z,7.10
2023-03-07T01:38:06.494Z,7.10
2023-03-07T01:40:35.884Z,7.20
2023-03-07T01:43:31.857Z,7.10
2023-03-07T01:46:19.172Z,7.10
2023-03-07T01:48:56.175Z,7.10
2023-03-07T01:51:23.200Z,7.00
2023-03-07T01:53:52.249Z,6.90
2023-03-07T01:56:19.478Z,6.90
2023-03-07T01:58:46.316Z,6.80
2023-03-07T02:01:13.211Z,6.70
2023-03-07T02:03:58.015Z,6.70
2023-03-07T02:06:27.655Z,6.50
2023-03-07T02:08:54.956Z,6.40
2023-03-07T02:11:21.850Z,6.20
2023-03-07T02:13:48.688Z,6.10
2023-03-07T02:16:15.541Z,6.00
2023-03-07T02:18:47.582Z,6.00
2023-03-07T02:21:31.235Z,5.90
2023-03-07T02:24:07.315Z,5.90
2023-03-07T02:26:39.438Z,5.80
2023-03-07T02:29:06.495Z,5.80
2023-03-07T02:31:33.534Z,5.70
2023-03-07T02:34:00.586Z,5.70
2023-03-07T02:36:34.507Z,5.70
2023-03-07T02:39:10.784Z,5.60
2023-03-07T02:41:37.700Z,5.60
2023-03-07T02:44:10.409Z,5.60
2023-03-07T02:46:37.427Z,5.60
2023-03-07T02:49:04.428Z,5.60
2023-03-07T02:51:32.148Z,5.60
2023-03-07T02:53:59.004Z,5.60
2023-03-07T02:56:26.151Z,5.60
2023-03-07T02:58:53.046Z,5.60
2023-03-07T03:01:19.856Z,5.60
2023-03-07T03:03:46.802Z,5.60
2023-03-07T03:06:14.662Z,5.60
2023-03-07T03:08:41.453Z,5.50
2023-03-07T03:11:08.357Z,5.50
2023-03-07T03:13:37.679Z,5.50
2023-03-07T03:16:06.740Z,5.50
2023-03-07T03:18:33.898Z,5.50
2023-03-07T03:21:00.822Z,5.40
2023-03-07T03:23:28.453Z,5.40
2023-03-07T03:26:05.221Z,5.30
2023-03-07T03:28:33.295Z,5.30
2023-03-07T03:31:01.081Z,5.20
2023-03-07T03:33:31.600Z,5.20
2023-03-07T03:35:59.347Z,5.10
2023-03-07T03:38:26.554Z,5.10
2023-03-07T03:40:55.232Z,5.10
2023-03-07T03:43:22.329Z,5.10
2023-03-07T03:45:56.449Z,5.10
2023-03-07T03:48:24.791Z,5.10
2023-03-07T03:50:51.696Z,5.10
2023-03-07T03:53:18.575Z,5.10
2023-03-07T03:55:45.422Z,5.10
2023-03-07T03:58:12.301Z,5.10
2023-03-07T04:00:39.264Z,5.10
2023-03-07T04:03:07.081Z,5.00
2023-03-07T04:05:35.026Z,5.00
2023-03-07T04:08:01.830Z,5.00
2023-03-07T04:10:28.884Z,5.00
2023-03-07T04:12:55.774Z,5.10
2023-03-07T04:15:22.822Z,5.00
2023-03-07T04:17:49.671Z,5.10
2023-03-07T04:20:17.773Z,5.10
2023-03-07T04:22:46.727Z,5.10
2023-03-07T04:25:13.599Z,5.10
2023-03-07T04:27:40.550Z,5.10
2023-03-07T04:30:08.700Z,5.00
2023-03-07T04:32:35.658Z,5.10
2023-03-07T04:35:02.899Z,5.00
2023-03-07T04:37:29.871Z,5.00
2023-03-07T04:39:56.749Z,5.00
2023-03-07T04:42:23.654Z,4.90
2023-03-07T04:44:52.186Z,4.90
2023-03-07T04:47:19.018Z,4.90
2023-03-07T04:49:45.932Z,4.90
2023-03-07T04:52:12.857Z,4.90
2023-03-07T04:54:40.894Z,4.80
2023-03-07T04:57:08.783Z,4.80
2023-03-07T04:59:39.204Z,4.80
2023-03-07T05:02:08.359Z,4.70
2023-03-07T05:04:35.932Z,4.70
2023-03-07T05:07:03.136Z,4.80
2023-03-07T05:09:30.352Z,4.80
2023-03-07T05:11:59.237Z,4.80
2023-03-07T05:14:26.581Z,4.80
2023-03-07T05:16:53.441Z,4.80
2023-03-07T05:19:20.283Z,4.80
2023-03-07T05:21:49.235Z,4.80
2023-03-07T05:24:16.781Z,4.80
2023-03-07T05:26:43.729Z,4.70
2023-03-07T05:29:10.531Z,4.70
2023-03-07T05:31:37.474Z,4.70
2023-03-07T05:34:06.635Z,4.70
2023-03-07T05:36:33.663Z,4.70
2023-03-07T05:39:03.356Z,4.70
2023-03-07T05:41:30.299Z,4.70
2023-03-07T05:43:58.339Z,4.70
2023-03-07T05:46:25.683Z,4.70
2023-03-07T05:48:53.185Z,4.70
2023-03-07T05:51:20.066Z,4.70
2023-03-07T05:53:47.100Z,4.70
2023-03-07T05:56:14.577Z,4.70
2023-03-07T05:58:42.009Z,4.60
2023-03-07T06:01:09.457Z,4.70
2023-03-07T06:03:36.569Z,4.70
2023-03-07T06:06:03.710Z,4.70
2023-03-07T06:08:30.576Z,4.60
2023-03-07T06:10:57.443Z,4.70
2023-03-07T06:13:25.523Z,4.70
2023-03-07T06:15:52.932Z,4.70
2023-03-07T06:18:21.390Z,4.70
2023-03-07T06:21:01.832Z,4.70
2023-03-07T06:23:32.876Z,4.70
2023-03-07T06:26:00.140Z,4.70
2023-03-07T06:28:27.285Z,4.70
2023-03-07T06:30:54.407Z,4.70
2023-03-07T06:33:21.505Z,4.70
2023-03-07T06:35:48.517Z,4.70
2023-03-07T06:38:16.158Z,4.70
2023-03-07T06:40:44.103Z,4.70
2023-03-07T06:43:14.601Z,4.80
2023-03-07T06:45:41.603Z,4.90
2023-03-07T06:48:09.659Z,4.80
2023-03-07T06:50:37.943Z,4.90
2023-03-07T06:53:04.834Z,4.90
2023-03-07T06:55:31.810Z,4.90
2023-03-07T06:57:58.771Z,4.90
2023-03-07T07:00:25.871Z,4.90
2023-03-07T07:02:53.147Z,4.80
2023-03-07T07:05:20.512Z,4.80
2023-03-07T07:07:47.382Z,4.70
2023-03-07T07:10:14.416Z,4.70
2023-03-07T07:12:41.370Z,4.70
2023-03-07T07:15:09.731Z,4.60
2023-03-07T07:17:36.780Z,4.60
2023-03-07T07:20:05.396Z,4.60
2023-03-07T07:22:32.880Z,4.50
2023-03-07T07:24:59.818Z,4.50
2023-03-07T07:27:28.387Z,4.50
2023-03-07T07:29:55.970Z,4.50
2023-03-07T07:32:23.090Z,4.50
2023-03-07T07:34:50.131Z,4.50
2023-03-07T07:37:17.127Z,4.50
2023-03-07T07:39:44.084Z,4.50
2023-03-07T07:42:12.134Z,4.50
2023-03-07T07:44:50.311Z,4.50
2023-03-07T07:47:19.232Z,4.60
2023-03-07T07:49:46.171Z,4.60
2023-03-07T07:52:13.012Z,4.70
2023-03-07T07:54:40.063Z,4.70
2023-03-07T07:57:07.380Z,4.80
2023-03-07T07:59:34.345Z,4.80
2023-03-07T08:02:02.254Z,4.80
2023-03-07T08:04:29.411Z,4.80
2023-03-07T08:06:56.255Z,4.80
2023-03-07T08:09:23.120Z,4.90
2023-03-07T08:11:50.075Z,5.00
2023-03-07T08:14:16.952Z,5.10
2023-03-07T08:16:43.788Z,5.20
2023-03-07T08:19:10.720Z,5.30
2023-03-07T08:21:37.574Z,5.30
2023-03-07T08:24:04.628Z,5.30
2023-03-07T08:26:31.700Z,5.30
2023-03-07T08:28:58.672Z,5.30
2023-03-07T08:31:26.054Z,5.30
2023-03-07T08:33:53.097Z,5.30
2023-03-07T08:36:20.035Z,5.30
2023-03-07T08:38:53.303Z,5.40
2023-03-07T08:41:21.033Z,5.40
2023-03-07T08:43:48.014Z,5.40
2023-03-07T08:46:15.049Z,5.50
2023-03-07T08:48:42.032Z,5.60
2023-03-07T08:51:10.958Z,5.60
2023-03-07T08:53:37.948Z,5.70
2023-03-07T08:56:08.470Z,5.70
2023-03-07T08:58:35.671Z,5.70
2023-03-07T09:01:03.709Z,5.70
2023-03-07T09:03:30.542Z,5.80
2023-03-07T09:05:57.361Z,5.80
2023-03-07T09:08:24.218Z,5.80
2023-03-07T09:10:51.379Z,5.80
2023-03-07T09:13:18.544Z,5.90
2023-03-07T09:15:45.631Z,6.00
2023-03-07T09:18:12.578Z,6.00
2023-03-07T09:20:39.536Z,6.00
2023-03-07T09:23:06.769Z,6.00
2023-03-07T09:25:33.628Z,6.00
2023-03-07T09:28:00.516Z,6.00
2023-03-07T09:30:28.870Z,6.10
2023-03-07T09:32:56.254Z,6.10
2023-03-07T09:35:24.816Z,6.10
2023-03-07T09:37:51.588Z,6.10
2023-03-07T09:40:20.091Z,6.10
2023-03-07T09:42:52.787Z,6.20
2023-03-07T09:45:53.682Z,6.20
2023-03-07T09:48:41.033Z,6.20
2023-03-07T09:51:11.984Z,6.20
2023-03-07T09:54:01.602Z,6.20
2023-03-07T09:56:53.947Z,6.30
2023-03-07T09:59:26.938Z,6.30
2023-03-07T10:02:16.806Z,6.50
2023-03-07T10:04:51.956Z,6.60
2023-03-07T10:07:18.870Z,6.60
2023-03-07T10:09:45.686Z,6.70
2023-03-07T10:12:51.520Z,6.70
2023-03-07T10:15:29.123Z,6.80
2023-03-07T10:18:34.732Z,6.90
2023-03-07T10:21:27.494Z,7.00
2023-03-07T10:24:09.191Z,7.10
2023-03-07T10:26:47.832Z,7.30
2023-03-07T10:29:19.114Z,7.30
2023-03-07T10:31:48.195Z,7.40
2023-03-07T10:34:27.138Z,7.50
2023-03-07T10:37:08.420Z,7.60
2023-03-07T10:39:55.428Z,7.70
2023-03-07T10:42:26.951Z,7.70
2023-03-07T10:44:53.849Z,7.80
2023-03-07T10:47:25.461Z,7.80
2023-03-07T10:50:06.777Z,7.80
2023-03-07T10:52:41.328Z,7.80
2023-03-07T10:55:42.946Z,7.70
2023-03-07T10:58:21.672Z,7.60
2023-03-07T11:01:06.316Z,7.50
2023-03-07T11:03:55.917Z,7.40
2023-03-07T11:06:27.870Z,7.40
2023-03-07T11:08:56.202Z,7.30
2023-03-07T11:11:30.945Z,7.30
2023-03-07T11:14:09.046Z,7.40
2023-03-07T11:16:52.114Z,7.40
2023-03-07T11:19:39.160Z,7.50
2023-03-07T11:22:17.825Z,7.50
2023-03-07T11:25:13.241Z,7.50
2023-03-07T11:27:46.098Z,7.50
2023-03-07T11:30:34.289Z,7.60
2023-03-07T11:33:02.890Z,7.60
2023-03-07T11:36:08.870Z,7.60
2023-03-07T11:38:41.456Z,7.60
2023-03-07T11:41:13.350Z,7.50
2023-03-07T11:44:04.109Z,7.50
2023-03-07T11:46:50.727Z,7.40
2023-03-07T11:49:59.270Z,7.40
2023-03-07T11:52:44.539Z,7.40
2023-03-07T11:55:35.890Z,7.40
2023-03-07T11:58:14.998Z,7.50
2023-03-07T12:01:04.345Z,7.50
2023-03-07T12:03:37.045Z,7.50
2023-03-07T12:06:22.642Z,7.40
2023-03-07T12:08:49.471Z,7.20
2023-03-07T12:11:25.342Z,7.20
2023-03-07T12:14:13.613Z,7.10
2023-03-07T12:16:52.568Z,7.00
2023-03-07T12:19:50.605Z,7.10
2023-03-07T12:22:25.843Z,7.20
2023-03-07T12:25:00.452Z,7.20
2023-03-07T12:27:50.675Z,7.20
2023-03-07T12:30:24.374Z,7.30
2023-03-07T12:32:51.247Z,7.40
2023-03-07T12:35:21.180Z,7.60
2023-03-07T12:37:51.516Z,7.90
2023-03-07T12:40:23.977Z,8.10
2023-03-07T12:43:07.827Z,8.30
2023-03-07T12:45:39.241Z,8.40
2023-03-07T12:48:26.239Z,8.50
2023-03-07T12:50:55.217Z,8.50
2023-03-07T12:53:37.019Z,8.60
2023-03-07T12:56:40.630Z,8.60
2023-03-07T12:59:14.900Z,8.60
2023-03-07T13:01:52.828Z,8.70
2023-03-07T13:04:23.425Z,8.70
2023-03-07T13:06:50.349Z,8.70
2023-03-07T13:09:26.984Z,8.50
2023-03-07T13:12:33.816Z,8.50
2023-03-07T13:15:00.658Z,8.50
2023-03-07T13:17:30.615Z,8.60
2023-03-07T13:20:05.215Z,8.60
2023-03-07T13:22:32.031Z,8.60
2023-03-07T13:25:27.927Z,8.60
2023-03-07T13:27:58.747Z,8.70
2023-03-07T13:30:30.144Z,8.70
2023-03-07T13:33:01.064Z,8.70
2023-03-07T13:35:30.645Z,8.70
2023-03-07T13:38:19.523Z,8.70
2023-03-07T13:40:46.692Z,8.80
2023-03-07T13:43:19.906Z,8.70
2023-03-07T13:46:00.867Z,8.60
2023-03-07T13:48:28.125Z,8.50
2023-03-07T13:50:54.962Z,8.30
2023-03-07T13:53:28.077Z,8.10
2023-03-07T13:55:57.195Z,7.90
2023-03-07T13:58:28.932Z,7.80
2023-03-07T14:01:00.154Z,7.70
2023-03-07T14:03:29.755Z,7.70
2023-03-07T14:06:24.591Z,7.80
2023-03-07T14:08:51.447Z,7.70
2023-03-07T14:11:24.449Z,7.80
2023-03-07T14:14:01.808Z,7.80
2023-03-07T14:16:56.469Z,7.80
2023-03-07T14:19:35.242Z,7.80
2023-03-07T14:22:10.465Z,7.80
2023-03-07T14:24:49.420Z,7.90
2023-03-07T14:27:16.811Z,7.90
2023-03-07T14:29:54.128Z,7.90
2023-03-07T14:32:31.153Z,8.00
2023-03-07T14:34:58.135Z,8.10
2023-03-07T14:37:29.298Z,8.10
2023-03-07T14:39:59.262Z,8.30
2023-03-07T14:42:44.092Z,8.50
2023-03-07T14:45:32.443Z,8.80
2023-03-07T14:48:12.108Z,9.10
2023-03-07T14:50:44.285Z,9.30
2023-03-07T14:53:15.715Z,9.40
2023-03-07T14:55:43.690Z,9.50
2023-03-07T14:58:18.471Z,9.50
2023-03-07T15:00:45.360Z,9.70
2023-03-07T15:03:13.146Z,10.00
2023-03-07T15:05:47.501Z,10.30
2023-03-07T15:08:30.948Z,10.40
2023-03-07T15:11:36.728Z,10.30
2023-03-07T15:14:15.493Z,10.10
2023-03-07T15:16:52.874Z,9.90
2023-03-07T15:19:36.561Z,9.60
2023-03-07T15:22:04.827Z,9.40
2023-03-07T15:24:36.390Z,9.30
2023-03-07T15:27:04.510Z,9.10
2023-03-07T15:29:31.497Z,9.00
2023-03-07T15:32:09.333Z,8.80
2023-03-07T15:34:39.749Z,8.70
2023-03-07T15:37:22.863Z,8.50
2023-03-07T15:40:03.848Z,8.30
2023-03-07T15:42:30.833Z,8.10
2023-03-07T15:45:01.627Z,8.00
2023-03-07T15:47:30.026Z,7.90
2023-03-07T15:49:57.878Z,7.80
2023-03-07T15:52:32.906Z,7.70
2023-03-07T15:55:01.110Z,7.60
2023-03-07T15:57:39.168Z,7.50
2023-03-07T16:00:17.885Z,7.40
2023-03-07T16:02:46.466Z,7.30
2023-03-07T16:05:23.014Z,7.20
2023-03-07T16:07:54.336Z,7.20
2023-03-07T16:10:21.968Z,7.00
2023-03-07T16:12:48.903Z,7.00
2023-03-07T16:15:16.532Z,7.00
2023-03-07T16:17:43.565Z,6.90
2023-03-07T16:20:17.953Z,6.90
2023-03-07T16:22:44.923Z,6.80
2023-03-07T16:25:11.927Z,6.70
2023-03-07T16:27:38.790Z,6.70
2023-03-07T16:30:13.286Z,6.60
2023-03-07T16:32:40.211Z,6.60
2023-03-07T16:35:24.702Z,6.60
2023-03-07T16:37:52.136Z,6.60
2023-03-07T16:40:20.884Z,6.60
2023-03-07T16:42:48.395Z,6.60
2023-03-07T16:45:31.475Z,6.60
2023-03-07T16:47:59.719Z,6.60
2023-03-07T16:50:28.690Z,6.60
2023-03-07T16:52:56.162Z,6.70
2023-03-07T16:55:23.355Z,6.90
2023-03-07T16:57:58.759Z,7.00
2023-03-07T17:00:25.976Z,7.10
2023-03-07T17:02:53.598Z,7.10
2023-03-07T17:05:25.552Z,7.20
2023-03-07T17:07:56.539Z,7.30
2023-03-07T17:10:23.996Z,7.50
2023-03-07T17:12:51.016Z,7.60
2023-03-07T17:15:19.650Z,7.80
2023-03-07T17:17:46.639Z,7.80
2023-03-07T17:20:22.745Z,7.80
2023-03-07T17:22:50.477Z,7.60
2023-03-07T17:25:17.427Z,7.50
2023-03-07T17:27:53.830Z,7.30
2023-03-07T17:30:22.375Z,7.20
2023-03-07T17:32:49.248Z,7.00
2023-03-07T17:35:16.246Z,6.90
2023-03-07T17:37:43.356Z,6.80
2023-03-07T17:40:11.817Z,6.60
2023-03-07T17:42:39.397Z,6.50
2023-03-07T17:45:06.872Z,6.40
2023-03-07T17:47:33.837Z,6.30
2023-03-07T17:50:05.445Z,6.20
2023-03-07T17:52:32.992Z,6.10
2023-03-07T17:54:59.980Z,6.00
2023-03-07T17:57:27.436Z,5.90
2023-03-07T17:59:54.917Z,5.90
2023-03-07T18:02:21.826Z,5.80
2023-03-07T18:04:48.680Z,5.80
2023-03-07T18:07:18.266Z,5.70
2023-03-07T18:09:45.307Z,5.70
2023-03-07T18:12:12.115Z,5.70
2023-03-07T18:14:38.959Z,5.60
2023-03-07T18:17:05.835Z,5.60
2023-03-07T18:19:32.679Z,5.50
2023-03-07T18:21:59.523Z,5.40
2023-03-07T18:24:27.656Z,5.40
2023-03-07T18:26:54.865Z,5.30
2023-03-07T18:29:21.940Z,5.30
2023-03-07T18:31:48.776Z,5.20
2023-03-07T18:34:15.817Z,5.10
2023-03-07T18:36:43.177Z,5.00
2023-03-07T18:39:11.177Z,5.00
2023-03-07T18:41:38.263Z,4.90
2023-03-07T18:44:05.190Z,4.80
2023-03-07T18:46:32.935Z,4.80
2023-03-07T18:49:00.268Z,4.70
2023-03-07T18:51:27.305Z,4.60
2023-03-07T18:53:54.747Z,4.60
2023-03-07T18:56:21.587Z,4.60
2023-03-07T18:58:48.410Z,4.50
2023-03-07T19:01:21.892Z,4.40
2023-03-07T19:03:49.535Z,4.30
2023-03-07T19:06:18.752Z,4.30
2023-03-07T19:08:45.813Z,4.30
2023-03-07T19:11:13.210Z,4.20
2023-03-07T19:13:40.632Z,4.20
2023-03-07T19:16:15.183Z,4.10
2023-03-07T19:18:42.464Z,4.00
2023-03-07T19:21:19.124Z,4.00
2023-03-07T19:23:46.363Z,3.90
2023-03-07T19:26:16.574Z,3.90
2023-03-07T19:28:43.728Z,3.90
2023-03-07T19:31:18.706Z,3.90
2023-03-07T19:33:45.875Z,3.80
2023-03-07T19:36:14.577Z,3.80
2023-03-07T19:38:41.859Z,3.80
2023-03-07T19:41:12.064Z,3.80
2023-03-07T19:43:38.920Z,3.80
2023-03-07T19:46:07.121Z,3.70
2023-03-07T19:48:34.027Z,3.70
2023-03-07T19:51:00.957Z,3.60
2023-03-07T19:53:27.950Z,3.50
2023-03-07T19:55:54.857Z,3.40
2023-03-07T19:58:21.643Z,3.30
2023-03-07T20:00:48.442Z,3.20
2023-03-07T20:03:19.285Z,3.20
2023-03-07T20:05:48.542Z,3.10
2023-03-07T20:08:15.919Z,3.00
2023-03-07T20:10:42.941Z,3.00
2023-03-07T20:13:10.020Z,2.90
2023-03-07T20:15:36.902Z,2.80
2023-03-07T20:18:05.896Z,2.80
2023-03-07T20:20:35.266Z,2.80
2023-03-07T20:23:03.492Z,2.70
2023-03-07T20:25:30.508Z,2.70
2023-03-07T20:27:57.864Z,2.60
2023-03-07T20:30:24.811Z,2.60
2023-03-07T20:32:51.628Z,2.50
2023-03-07T20:35:18.467Z,2.50
2023-03-07T20:37:45.289Z,2.50
2023-03-07T20:40:12.713Z,2.40
2023-03-07T20:42:39.554Z,2.40
2023-03-07T20:45:06.966Z,2.30
2023-03-07T20:47:36.360Z,2.30
2023-03-07T20:50:03.684Z,2.30
2023-03-07T20:52:30.620Z,2.30
2023-03-07T20:54:59.810Z,2.20
2023-03-07T20:57:26.951Z,2.20
2023-03-07T20:59:53.783Z,2.20
2023-03-07T21:02:20.616Z,2.10
2023-03-07T21:04:49.787Z,2.10
2023-03-07T21:07:16.771Z,2.30
2023-03-07T21:09:50.638Z,2.40
2023-03-07T21:12:17.976Z,2.60
2023-03-07T21:14:44.891Z,2.70
2023-03-07T21:17:13.125Z,2.80
2023-03-07T21:19:39.965Z,3.00
2023-03-07T21:22:06.923Z,3.20
2023-03-07T21:24:33.897Z,3.40
2023-03-07T21:27:00.831Z,3.50
2023-03-07T21:29:27.679Z,3.60
2023-03-07T21:31:55.525Z,3.60
2023-03-07T21:34:22.294Z,3.60
2023-03-07T21:36:55.805Z,3.60
2023-03-07T21:39:24.180Z,3.60
2023-03-07T21:41:51.038Z,3.60
2023-03-07T21:44:17.996Z,3.60
2023-03-07T21:46:45.252Z,3.60
2023-03-07T21:49:13.134Z,3.60
2023-03-07T21:51:40.124Z,3.70
2023-03-07T21:54:06.984Z,3.80
2023-03-07T21:56:33.836Z,4.00
2023-03-07T21:59:00.695Z,4.00
2023-03-07T22:01:28.606Z,4.10
2023-03-07T22:03:56.457Z,4.10
2023-03-07T22:06:23.524Z,4.10
2023-03-07T22:08:50.369Z,4.00
2023-03-07T22:11:17.231Z,3.90
2023-03-07T22:13:44.061Z,3.90
2023-03-07T22:16:12.856Z,3.80
2023-03-07T22:18:40.544Z,3.80
2023-03-07T22:21:13.585Z,3.70
2023-03-07T22:23:40.569Z,3.60
2023-03-07T22:26:08.242Z,3.60
2023-03-07T22:28:35.164Z,3.50
2023-03-07T22:31:07.165Z,3.50
2023-03-07T22:33:34.167Z,3.50
2023-03-07T22:36:03.234Z,3.60
2023-03-07T22:38:32.426Z,3.80
2023-03-07T22:41:05.961Z,3.90
2023-03-07T22:43:34.074Z,4.00
2023-03-07T22:46:01.122Z,3.90
2023-03-07T22:48:28.132Z,3.90
2023-03-07T22:50:55.100Z,3.80
2023-03-07T22:53:22.423Z,3.70
2023-03-07T22:55:49.209Z,3.70
2023-03-07T22:58:16.176Z,3.60
2023-03-07T23:00:43.936Z,3.50
2023-03-07T23:03:11.086Z,3.50
2023-03-07T23:05:38.006Z,3.50
2023-03-07T23:08:05.119Z,3.50
2023-03-07T23:10:32.027Z,3.40
2023-03-07T23:12:58.953Z,3.40
2023-03-07T23:15:25.849Z,3.40
2023-03-07T23:17:52.706Z,3.30
2023-03-07T23:20:19.916Z,3.30
2023-03-07T23:22:46.880Z,3.20
2023-03-07T23:25:14.988Z,3.20
2023-03-07T23:27:41.916Z,3.10
2023-03-07T23:30:09.564Z,3.10
2023-03-07T23:32:36.414Z,3.00
2023-03-07T23:35:04.010Z,3.00
2023-03-07T23:37:30.879Z,3.00
2023-03-07T23:39:58.519Z,3.00
2023-03-07T23:42:25.338Z,3.00
2023-03-07T23:44:52.141Z,3.00
2023-03-07T23:47:19.008Z,3.00
2023-03-07T23:49:45.872Z,3.10
2023-03-07T23:52:12.730Z,3.10
2023-03-07T23:54:41.946Z,3.10
2023-03-07T23:57:08.842Z,3.20
2023-03-07T23:59:35.640Z,3.20
